Time;durP1;ratioP1;P1;durP2;ratioP2;P2;SDS_P1;SDS_P2;PMS_P1;PMS_P2;Temp;Humidity;BMP_temperature;BMP_pressure;BME280_temperature;BME280_humidity;BME280_pressure;Samples;Min_cycle;Max_cycle;Signal;HPM_P1;HPM_P2
2023/01/04 00:00:44;;;;;;;3.80;2.00;;;;;;;8.85;85.46;101880.06;5025869;28;20025;-88
2023/01/04 00:03:09;;;;;;;3.25;1.92;;;;;;;8.88;85.74;101874.75;5032333;28;20583;-88
2023/01/04 00:05:34;;;;;;;5.95;1.92;;;;;;;8.85;85.81;101858.97;5030536;28;20029;-88
2023/01/04 00:08:00;;;;;;;6.40;2.40;;;;;;;8.73;85.96;101865.34;5031601;28;20029;-89
2023/01/04 00:10:25;;;;;;;6.95;2.72;;;;;;;8.82;85.59;101849.38;5028736;28;20029;-89
2023/01/04 00:12:50;;;;;;;6.93;2.90;;;;;;;8.79;86.68;101841.50;5008826;28;20056;-89
2023/01/04 00:15:16;;;;;;;8.80;2.33;;;;;;;8.77;87.47;101853.84;5030503;28;20373;-89
2023/01/04 00:17:41;;;;;;;5.85;2.58;;;;;;;8.78;86.54;101855.59;5025207;28;20025;-89
2023/01/04 00:20:07;;;;;;;4.25;2.20;;;;;;;8.79;87.49;101832.72;5006574;28;20022;-88
2023/01/04 00:22:33;;;;;;;8.00;2.72;;;;;;;8.81;87.65;101841.47;5026727;28;20113;-88
2023/01/04 00:24:58;;;;;;;6.80;2.28;;;;;;;8.82;88.51;101838.81;5027139;28;20037;-88
2023/01/04 00:27:24;;;;;;;7.80;2.53;;;;;;;8.68;89.18;101830.28;5014778;28;20056;-88
2023/01/04 00:29:49;;;;;;;6.95;2.67;;;;;;;8.58;89.87;101834.81;5027720;28;20021;-88
2023/01/04 00:32:14;;;;;;;9.05;3.15;;;;;;;8.65;90.29;101817.13;5003732;28;20666;-88
2023/01/04 00:34:39;;;;;;;10.73;2.95;;;;;;;8.53;90.99;101793.59;5008221;28;20021;-88
2023/01/04 00:37:05;;;;;;;9.02;2.67;;;;;;;8.64;89.94;101803.09;5030121;28;20436;-88
2023/01/04 00:39:30;;;;;;;9.02;2.75;;;;;;;8.70;90.07;101799.47;5030494;28;20021;-88
2023/01/04 00:42:03;;;;;;;4.43;2.58;;;;;;;8.73;89.62;101790.66;5007600;28;20062;-88
2023/01/04 00:44:30;;;;;;;9.70;2.47;;;;;;;8.74;91.06;101802.94;5019279;28;20043;-88
2023/01/04 00:46:57;;;;;;;5.72;3.05;;;;;;;8.56;92.01;101785.66;5007270;28;20029;-88
2023/01/04 00:49:22;;;;;;;4.93;2.60;;;;;;;8.80;92.07;101795.78;5028948;28;20026;-88
2023/01/04 00:51:47;;;;;;;4.55;2.50;;;;;;;8.75;91.64;101779.16;5017075;28;20496;-88
2023/01/04 00:54:14;;;;;;;5.80;2.50;;;;;;;8.78;91.04;101788.81;5027790;28;20131;-88
2023/01/04 00:56:39;;;;;;;9.23;2.58;;;;;;;8.84;92.29;101781.63;5028824;28;20029;-88
2023/01/04 00:59:05;;;;;;;3.63;2.15;;;;;;;8.80;92.13;101761.50;5026464;28;20435;-88
2023/01/04 01:01:32;;;;;;;3.40;2.80;;;;;;;8.91;91.26;101772.72;5024265;28;20056;-88
2023/01/04 01:04:00;;;;;;;5.32;3.10;;;;;;;8.84;92.66;101775.50;5013576;28;20385;-87
2023/01/04 01:06:27;;;;;;;4.78;2.47;;;;;;;8.87;92.83;101757.00;5027555;28;20637;-88
2023/01/04 01:08:53;;;;;;;5.68;2.58;;;;;;;8.77;91.97;101782.66;5025679;28;21337;-87
2023/01/04 01:11:19;;;;;;;5.63;2.20;;;;;;;8.94;93.58;101766.50;5009863;28;20038;-88
2023/01/04 01:13:45;;;;;;;6.53;3.60;;;;;;;8.90;92.72;101765.69;5028339;28;20151;-88
2023/01/04 01:16:13;;;;;;;5.45;2.97;;;;;;;8.93;92.96;101751.59;5023872;28;20131;-87
2023/01/04 01:18:41;;;;;;;4.20;2.53;;;;;;;8.93;93.82;101756.88;5024390;28;20041;-88
2023/01/04 01:21:10;;;;;;;6.70;2.65;;;;;;;9.03;93.48;101758.44;5026120;28;20053;-88
2023/01/04 01:23:35;;;;;;;3.83;2.30;;;;;;;8.95;93.00;101755.06;5008575;28;20033;-88
2023/01/04 01:26:02;;;;;;;5.63;3.20;;;;;;;8.97;93.41;101761.19;5012354;28;20033;-88
2023/01/04 01:28:28;;;;;;;3.20;2.33;;;;;;;9.08;93.51;101760.97;5031052;28;20052;-87
2023/01/04 01:30:53;;;;;;;7.28;2.47;;;;;;;8.93;94.21;101734.00;5030479;28;20056;-88
2023/01/04 01:33:19;;;;;;;7.45;2.47;;;;;;;9.06;94.13;101774.22;5033401;28;20025;-87
2023/01/04 01:35:44;;;;;;;3.58;2.60;;;;;;;9.06;93.69;101753.09;5015391;28;20112;-88
2023/01/04 01:38:09;;;;;;;6.57;3.60;;;;;;;9.03;93.97;101736.47;5032773;28;20033;-88
2023/01/04 01:40:40;;;;;;;5.03;3.60;;;;;;;9.03;94.61;101726.78;5032406;28;20068;-87
2023/01/04 01:43:18;;;;;;;6.32;2.22;;;;;;;9.06;94.27;101733.78;5031602;28;20073;-88
2023/01/04 01:45:50;;;;;;;5.28;2.70;;;;;;;9.07;94.20;101738.16;5030409;28;20029;-88
2023/01/04 01:48:22;;;;;;;5.47;2.67;;;;;;;9.08;93.49;101735.47;5032543;28;20021;-88
2023/01/04 01:50:52;;;;;;;6.20;2.88;;;;;;;9.15;93.84;101733.59;5031605;28;20021;-88
2023/01/04 01:53:19;;;;;;;6.53;2.88;;;;;;;9.09;93.50;101747.78;5032817;28;20029;-88
2023/01/04 01:55:47;;;;;;;3.63;2.38;;;;;;;9.10;93.66;101733.69;5012672;28;20527;-87
2023/01/04 01:58:19;;;;;;;3.67;2.47;;;;;;;9.07;93.71;101754.84;5026842;28;20553;-88
2023/01/04 02:00:44;;;;;;;3.15;2.50;;;;;;;9.17;93.98;101708.91;5026298;28;20087;-88
2023/01/04 02:03:17;;;;;;;5.28;2.05;;;;;;;9.16;93.45;101723.00;5032976;28;20033;-88
2023/01/04 02:05:45;;;;;;;5.38;2.20;;;;;;;9.26;93.11;101733.38;5015003;28;20026;-88
2023/01/04 02:08:13;;;;;;;4.45;2.70;;;;;;;9.20;93.23;101716.78;5028894;28;20044;-88
2023/01/04 02:10:38;;;;;;;4.90;2.35;;;;;;;9.27;93.68;101703.44;5015193;28;20565;-88
2023/01/04 02:13:11;;;;;;;5.72;2.08;;;;;;;9.31;93.62;101732.38;5030857;28;20108;-88
2023/01/04 02:16:13;;;;;;;4.55;2.15;;;;;;;9.40;93.24;101726.03;5027496;28;20473;-87
2023/01/04 02:18:56;;;;;;;4.18;2.05;;;;;;;9.38;93.34;101741.91;5028497;28;20045;-87
2023/01/04 02:21:32;;;;;;;3.20;2.13;;;;;;;9.36;93.56;101725.22;5033048;28;20027;-88
2023/01/04 02:24:32;;;;;;;2.35;2.00;;;;;;;9.40;93.32;101723.41;5008829;28;20033;-87
2023/01/04 02:27:46;;;;;;;2.47;1.90;;;;;;;9.36;92.96;101724.34;5009380;28;20069;-88
2023/01/04 02:30:42;;;;;;;6.55;2.70;;;;;;;9.51;93.00;101713.47;5030720;28;20030;-88
2023/01/04 02:33:43;;;;;;;2.08;1.70;;;;;;;9.47;93.37;101711.81;5027643;28;20029;-87
2023/01/04 02:36:22;;;;;;;3.25;1.60;;;;;;;9.47;93.40;101703.03;5010588;28;20084;-87
2023/01/04 02:39:03;;;;;;;2.90;1.58;;;;;;;9.48;93.58;101683.66;5008290;28;20045;-87
2023/01/04 02:41:38;;;;;;;2.92;1.58;;;;;;;9.55;93.58;101709.88;5011531;28;20076;-88
2023/01/04 02:50:30;;;;;;;1.75;1.65;;;;;;;9.63;93.38;101684.16;5030328;28;20048;-88
2023/01/04 02:53:02;;;;;;;2.83;1.63;;;;;;;9.65;93.09;101673.56;5032304;28;20108;-87
2023/01/04 02:55:39;;;;;;;2.73;1.37;;;;;;;9.60;93.68;101665.75;5004417;28;20084;-88
2023/01/04 02:58:33;;;;;;;1.15;1.02;;;;;;;9.71;93.25;101657.59;5012301;28;20296;-87
2023/01/04 03:07:08;;;;;;;3.33;1.70;;;;;;;9.75;93.53;101658.41;5025524;28;20040;-88
2023/01/04 03:09:37;;;;;;;1.65;1.38;;;;;;;9.79;93.62;101660.03;5028033;28;20029;-88
2023/01/04 03:12:31;;;;;;;3.28;1.30;;;;;;;9.82;92.84;101639.72;5030713;28;20040;-88
2023/01/04 03:15:29;;;;;;;1.42;1.20;;;;;;;9.93;92.81;101655.28;5019612;28;20044;-88
2023/01/04 03:18:06;;;;;;;1.70;1.25;;;;;;;9.85;92.96;101659.91;4991892;28;20034;-88
2023/01/04 03:20:31;;;;;;;2.38;1.40;;;;;;;9.85;93.06;101631.72;5028699;28;20029;-87
2023/01/04 03:37:44;;;;;;;1.90;1.40;;;;;;;10.03;92.84;101616.34;5024301;28;20067;-88
2023/01/04 03:49:06;;;;;;;2.03;1.67;;;;;;;10.22;92.68;101601.72;5021219;28;20459;-88
2023/01/04 03:51:36;;;;;;;1.75;1.52;;;;;;;10.24;92.79;101605.22;5028683;28;20068;-88
2023/01/04 03:54:10;;;;;;;2.92;1.83;;;;;;;10.20;92.58;101588.53;5000893;28;20021;-88
2023/01/04 03:56:40;;;;;;;1.38;1.27;;;;;;;10.28;92.54;101592.81;5006553;28;20025;-88
2023/01/04 03:59:07;;;;;;;3.83;1.73;;;;;;;10.17;91.96;101575.44;5023606;28;20057;-88
2023/01/04 04:01:34;;;;;;;2.28;1.55;;;;;;;10.25;91.89;101587.59;5025365;28;20039;-88
2023/01/04 04:09:28;;;;;;;3.88;1.77;;;;;;;10.20;92.65;101598.25;5030041;28;20041;-87
2023/01/04 04:11:53;;;;;;;3.35;2.00;;;;;;;10.28;92.24;101574.31;5027821;28;20404;-88
2023/01/04 04:14:18;;;;;;;3.45;1.80;;;;;;;10.35;91.76;101581.13;5023417;28;20030;-89
2023/01/04 04:16:44;;;;;;;2.28;1.83;;;;;;;10.34;91.67;101568.84;5024436;28;20058;-88
2023/01/04 04:19:09;;;;;;;3.45;1.90;;;;;;;10.30;91.78;101573.34;5027537;28;20110;-89
2023/01/04 04:21:34;;;;;;;2.25;1.88;;;;;;;10.33;92.00;101572.41;5004585;28;20527;-88
2023/01/04 04:24:00;;;;;;;2.38;1.92;;;;;;;10.33;92.49;101567.97;5025470;28;20029;-88
2023/01/04 04:26:25;;;;;;;2.70;1.70;;;;;;;10.30;93.65;101560.13;5026640;28;20017;-88
2023/01/04 04:28:50;;;;;;;2.40;1.77;;;;;;;10.34;93.29;101560.91;5003102;28;20412;-88
2023/01/04 04:31:16;;;;;;;1.73;1.63;;;;;;;10.30;93.28;101552.19;5025369;28;20029;-87
2023/01/04 04:33:41;;;;;;;3.45;2.20;;;;;;;10.20;93.47;101551.53;5013286;28;20053;-88
2023/01/04 04:36:07;;;;;;;3.03;2.08;;;;;;;10.35;92.90;101560.00;5029095;28;20021;-88
2023/01/04 04:38:33;;;;;;;2.88;2.30;;;;;;;10.39;92.31;101541.38;5033208;28;20374;-88
2023/01/04 04:43:42;;;;;;;3.55;2.30;;;;;;;10.55;91.79;101546.25;5023928;28;20033;-88
2023/01/04 04:46:07;;;;;;;2.30;2.10;;;;;;;10.54;91.55;101528.63;5024004;28;20025;-88
2023/01/04 04:48:33;;;;;;;3.00;1.73;;;;;;;10.60;91.93;101534.59;5026532;28;20326;-88
2023/01/04 04:50:58;;;;;;;2.38;2.17;;;;;;;10.64;91.72;101546.84;5009602;28;20108;-89
2023/01/04 04:53:24;;;;;;;4.30;2.65;;;;;;;10.61;91.50;101525.75;5009882;28;20029;-88
2023/01/04 04:55:53;;;;;;;3.35;2.00;;;;;;;10.68;91.38;101523.81;5030229;28;20492;-88
2023/01/04 04:58:19;;;;;;;2.47;1.90;;;;;;;10.73;91.33;101537.78;5008550;28;20022;-88
2023/01/04 05:00:44;;;;;;;2.70;1.85;;;;;;;10.73;91.19;101532.47;5027859;28;20924;-88
2023/01/04 05:03:10;;;;;;;2.08;1.83;;;;;;;10.76;90.53;101513.84;5028203;28;20029;-88
2023/01/04 05:05:35;;;;;;;2.97;1.88;;;;;;;10.79;90.70;101524.34;5029892;28;20044;-88
2023/01/04 05:08:00;;;;;;;3.15;2.13;;;;;;;10.82;90.50;101511.03;5012016;28;20113;-88
2023/01/04 05:10:25;;;;;;;2.50;1.98;;;;;;;10.80;90.32;101507.56;5012236;28;20033;-88
2023/01/04 05:12:59;;;;;;;2.97;1.90;;;;;;;10.84;90.54;101505.69;5028017;28;20148;-88
2023/01/04 05:15:32;;;;;;;2.83;2.13;;;;;;;10.90;90.38;101498.44;5009034;28;20029;-88
2023/01/04 05:17:58;;;;;;;3.30;1.90;;;;;;;10.92;89.69;101509.84;5026540;28;20113;-88
2023/01/04 05:20:23;;;;;;;2.70;1.73;;;;;;;11.00;89.34;101509.59;5010381;28;20119;-88
2023/01/04 05:22:48;;;;;;;4.13;1.80;;;;;;;11.04;88.99;101510.38;5009160;28;20032;-88
2023/01/04 05:25:14;;;;;;;2.78;1.70;;;;;;;10.98;89.38;101499.06;5010072;28;20037;-88
2023/01/04 05:27:40;;;;;;;3.72;2.20;;;;;;;11.11;88.87;101494.25;5028738;28;20026;-88
2023/01/04 05:31:06;;;;;;;3.42;1.95;;;;;;;11.05;89.07;101497.09;5025510;28;20376;-88
2023/01/04 05:33:01;;;;;;;2.80;1.60;;;;;;;11.18;88.51;101492.25;5013825;28;20080;-88
2023/01/04 05:35:26;;;;;;;1.95;1.65;;;;;;;11.22;88.28;101491.25;5003372;28;20032;-88
2023/01/04 05:37:52;;;;;;;2.67;1.75;;;;;;;11.13;88.39;101463.31;5005084;28;20057;-88
2023/01/04 05:40:17;;;;;;;4.10;1.80;;;;;;;11.25;88.48;101491.16;5028640;28;20080;-88
2023/01/04 05:42:43;;;;;;;1.90;1.60;;;;;;;11.23;88.97;101480.59;5008467;28;20056;-88
2023/01/04 05:45:09;;;;;;;3.25;1.85;;;;;;;11.16;90.65;101467.66;5025337;28;20033;-89
2023/01/04 05:47:35;;;;;;;2.88;1.70;;;;;;;11.05;90.57;101459.16;5009155;28;20088;-88
2023/01/04 05:50:01;;;;;;;2.17;1.92;;;;;;;11.05;92.12;101475.03;5008137;28;20031;-88
2023/01/04 05:52:27;;;;;;;3.78;2.10;;;;;;;11.05;91.25;101467.09;5028288;28;20397;-89
2023/01/04 05:54:52;;;;;;;2.65;2.13;;;;;;;11.03;91.17;101466.31;5028120;28;20083;-88
2023/01/04 05:57:17;;;;;;;2.67;2.03;;;;;;;11.07;90.72;101452.06;5028050;28;20087;-88
2023/01/04 05:59:43;;;;;;;5.47;2.10;;;;;;;11.16;90.56;101459.72;5015935;28;20026;-89
2023/01/04 06:02:21;;;;;;;2.28;1.58;;;;;;;11.16;90.35;101443.81;5025329;28;20037;-89
2023/01/04 06:04:47;;;;;;;3.95;1.52;;;;;;;11.22;89.97;101447.13;5027585;28;20029;-89
2023/01/04 06:07:12;;;;;;;3.97;1.63;;;;;;;11.30;89.58;101446.88;5026115;28;20033;-88
2023/01/04 06:09:38;;;;;;;2.42;1.23;;;;;;;11.32;89.65;101466.22;5028893;28;20029;-88
2023/01/04 06:12:04;;;;;;;2.42;1.80;;;;;;;11.39;88.94;101474.84;5030461;28;20029;-89
2023/01/04 06:14:29;;;;;;;2.38;1.40;;;;;;;11.35;88.75;101455.53;5031136;28;20032;-88
2023/01/04 06:16:54;;;;;;;2.78;1.35;;;;;;;11.48;88.69;101466.59;5009961;28;20477;-89
2023/01/04 06:19:20;;;;;;;1.88;1.40;;;;;;;11.45;89.81;101477.25;5033206;28;20029;-89
2023/01/04 06:21:45;;;;;;;3.03;1.60;;;;;;;11.29;90.33;101466.34;5029018;28;20112;-88
2023/01/04 06:24:10;;;;;;;2.35;1.70;;;;;;;11.25;91.76;101475.28;5010682;28;20032;-88
2023/01/04 06:26:36;;;;;;;4.00;1.90;;;;;;;11.29;92.97;101476.06;5028519;28;20079;-88
2023/01/04 06:29:02;;;;;;;2.55;1.75;;;;;;;11.15;92.66;101455.34;5031842;28;20440;-88
2023/01/04 06:31:27;;;;;;;2.22;1.60;;;;;;;11.27;92.41;101462.00;5028548;28;20484;-88
2023/01/04 06:33:52;;;;;;;4.30;1.95;;;;;;;11.26;92.71;101450.53;5011896;28;20553;-88
2023/01/04 06:36:17;;;;;;;2.08;1.88;;;;;;;11.16;92.69;101438.53;5009821;28;20545;-88
2023/01/04 06:38:43;;;;;;;2.28;1.60;;;;;;;11.26;93.24;101447.03;5021127;28;20052;-89
2023/01/04 06:41:08;;;;;;;2.50;1.52;;;;;;;11.32;93.15;101441.53;5029294;28;20120;-88
2023/01/04 06:43:33;;;;;;;3.92;2.28;;;;;;;11.25;93.32;101459.41;5029167;28;20021;-88
2023/01/04 06:46:00;;;;;;;1.75;1.50;;;;;;;11.28;93.00;101469.00;5026462;28;20084;-88
2023/01/04 06:48:26;;;;;;;3.42;1.92;;;;;;;11.20;93.62;101462.19;5025925;28;20029;-88
2023/01/04 06:50:51;;;;;;;2.60;1.90;;;;;;;11.18;93.44;101448.13;5029163;28;20420;-88
2023/01/04 06:53:16;;;;;;;2.42;1.52;;;;;;;11.23;93.29;101462.09;5028259;28;20037;-88
2023/01/04 06:55:43;;;;;;;2.63;1.52;;;;;;;11.25;92.61;101456.75;5027302;28;20104;-88
2023/01/04 06:58:08;;;;;;;1.73;1.63;;;;;;;11.40;92.44;101472.13;5025757;28;20026;-88
2023/01/04 07:00:34;;;;;;;3.35;2.20;;;;;;;11.29;93.37;101465.47;5029449;28;20395;-88
2023/01/04 07:02:59;;;;;;;3.92;1.85;;;;;;;11.42;93.04;101464.13;4998735;28;20026;-87
2023/01/04 07:05:24;;;;;;;1.90;1.70;;;;;;;11.45;92.63;101433.13;5029855;28;20034;-88
2023/01/04 07:07:49;;;;;;;2.40;1.60;;;;;;;11.51;92.25;101453.22;5030496;28;20060;-88
2023/01/04 07:10:15;;;;;;;2.15;1.52;;;;;;;11.48;92.11;101450.69;5010150;28;20175;-88
2023/01/04 07:12:40;;;;;;;2.00;1.77;;;;;;;11.47;92.24;101439.25;5027839;28;20025;-87
2023/01/04 07:15:06;;;;;;;1.70;1.60;;;;;;;11.52;91.33;101470.84;5030643;28;20075;-88
2023/01/04 07:17:31;;;;;;;2.28;2.03;;;;;;;11.50;91.87;101439.13;5023091;28;20385;-87
2023/01/04 07:19:56;;;;;;;1.58;1.40;;;;;;;11.60;91.14;101444.97;5010291;28;20505;-87
2023/01/04 07:22:22;;;;;;;3.03;1.80;;;;;;;11.73;91.25;101434.81;5028206;28;20405;-87
2023/01/04 07:24:47;;;;;;;2.10;1.15;;;;;;;11.77;90.45;101424.97;5028759;28;20037;-88
2023/01/04 07:27:13;;;;;;;2.83;1.38;;;;;;;11.85;89.52;101417.66;5009597;28;20037;-88
2023/01/04 07:29:38;;;;;;;2.60;1.02;;;;;;;11.90;90.12;101407.75;5027998;28;20021;-88
2023/01/04 07:32:03;;;;;;;3.15;1.30;;;;;;;11.88;89.60;101409.56;5009576;28;20049;-88
2023/01/04 07:34:29;;;;;;;1.55;1.30;;;;;;;11.84;89.91;101395.56;5029409;28;20119;-88
2023/01/04 07:36:54;;;;;;;1.10;0.90;;;;;;;12.08;88.91;101382.34;5008140;28;20045;-88
2023/01/04 07:39:21;;;;;;;2.80;1.10;;;;;;;12.07;88.98;101415.91;5004601;28;20101;-88
2023/01/04 07:41:47;;;;;;;1.80;1.00;;;;;;;12.13;88.47;101410.41;5025139;28;20049;-88
2023/01/04 07:44:13;;;;;;;2.92;1.13;;;;;;;12.14;88.43;101388.28;5028461;28;20033;-88
2023/01/04 07:46:41;;;;;;;2.25;1.38;;;;;;;12.16;88.08;101407.63;5007020;28;20152;-88
2023/01/04 07:49:12;;;;;;;4.30;1.08;;;;;;;12.23;87.71;101402.97;5027099;28;20029;-88
2023/01/04 07:51:38;;;;;;;2.45;1.15;;;;;;;12.18;87.70;101391.69;5027083;28;20052;-88
2023/01/04 07:54:03;;;;;;;0.88;0.85;;;;;;;12.09;87.58;101395.53;5011308;28;20029;-88
2023/01/04 07:56:29;;;;;;;2.30;1.00;;;;;;;12.13;87.10;101394.50;5026950;28;20037;-88
2023/01/04 07:58:56;;;;;;;1.55;0.90;;;;;;;12.10;87.61;101365.47;5028466;28;20085;-89
2023/01/04 08:01:23;;;;;;;2.65;1.10;;;;;;;12.25;87.01;101401.97;5005042;28;20108;-88
2023/01/04 08:03:48;;;;;;;4.10;1.50;;;;;;;12.18;86.69;101366.03;5025068;28;20155;-88
2023/01/04 08:06:15;;;;;;;2.63;1.00;;;;;;;12.18;86.64;101375.78;5026031;28;20488;-89
2023/01/04 08:08:40;;;;;;;3.50;1.15;;;;;;;12.32;86.52;101385.84;5027859;28;20029;-88
2023/01/04 08:11:08;;;;;;;3.45;1.10;;;;;;;12.32;86.57;101373.47;5025133;28;20080;-89
2023/01/04 08:13:34;;;;;;;3.47;1.20;;;;;;;12.33;86.55;101375.19;5025668;28;20473;-87
2023/01/04 08:15:59;;;;;;;2.58;1.40;;;;;;;12.34;86.67;101392.81;5027458;28;20032;-89
2023/01/04 08:18:25;;;;;;;4.53;1.40;;;;;;;12.29;86.15;101408.03;5006811;28;20026;-88
2023/01/04 08:21:00;;;;;;;1.40;1.20;;;;;;;12.28;86.64;101398.34;5024834;28;20029;-89
2023/01/04 08:23:25;;;;;;;3.92;1.50;;;;;;;12.30;86.57;101396.50;5024335;28;20026;-88
2023/01/04 08:25:50;;;;;;;3.50;1.33;;;;;;;12.31;86.25;101400.00;5026440;28;20033;-88
2023/01/04 08:28:16;;;;;;;1.48;1.20;;;;;;;12.30;86.55;101398.28;5009473;28;20511;-88
2023/01/04 08:30:41;;;;;;;2.90;1.10;;;;;;;12.35;86.74;101397.19;5025825;28;20029;-88
2023/01/04 08:33:14;;;;;;;4.50;1.00;;;;;;;12.39;86.68;101398.78;5027983;28;20108;-88
2023/01/04 08:35:39;;;;;;;3.80;1.05;;;;;;;12.45;86.57;101406.53;5026629;28;20022;-89
2023/01/04 08:38:04;;;;;;;2.85;1.23;;;;;;;12.42;86.51;101401.34;5010552;28;20048;-89
2023/01/04 08:40:30;;;;;;;2.95;1.40;;;;;;;12.57;86.78;101417.56;5027881;28;20022;-88
2023/01/04 08:42:55;;;;;;;2.70;1.10;;;;;;;12.44;86.07;101407.44;5012763;28;20042;-89
2023/01/04 08:45:20;;;;;;;4.60;1.58;;;;;;;12.49;86.78;101404.59;5022524;28;20025;-89
2023/01/04 08:47:45;;;;;;;4.65;2.25;;;;;;;12.49;86.49;101394.84;5025370;28;20404;-89
2023/01/04 08:50:11;;;;;;;4.25;1.58;;;;;;;12.49;85.39;101405.47;5027622;28;20025;-89
2023/01/04 08:52:36;;;;;;;2.92;1.00;;;;;;;12.65;86.32;101416.34;5007385;28;20025;-89
2023/01/04 08:55:02;;;;;;;3.30;1.50;;;;;;;12.53;86.73;101408.88;5029385;28;20500;-89
2023/01/04 08:57:27;;;;;;;3.53;1.25;;;;;;;12.62;86.78;101423.56;5028780;28;20025;-89
2023/01/04 08:59:52;;;;;;;3.80;1.48;;;;;;;12.56;85.23;101432.63;5030925;28;20440;-89
2023/01/04 09:02:23;;;;;;;1.95;1.20;;;;;;;12.62;86.14;101405.00;5032844;28;20023;-89
2023/01/04 09:04:49;;;;;;;3.80;1.10;;;;;;;12.67;86.20;101418.94;5032280;28;20080;-89
2023/01/04 09:07:14;;;;;;;4.80;1.25;;;;;;;12.71;85.82;101425.84;5014319;28;20037;-89
2023/01/04 09:09:40;;;;;;;5.93;1.00;;;;;;;12.69;86.27;101415.31;5028465;28;20083;-89
2023/01/04 09:12:05;;;;;;;2.05;1.00;;;;;;;12.72;85.42;101414.31;5010449;28;20124;-89
2023/01/04 09:14:30;;;;;;;3.95;1.40;;;;;;;12.69;85.51;101411.81;5025781;28;20026;-89
2023/01/04 09:16:56;;;;;;;6.63;1.27;;;;;;;12.67;85.93;101400.38;5007892;28;20032;-90
2023/01/04 09:19:21;;;;;;;3.95;1.23;;;;;;;12.71;86.15;101407.28;5027895;28;20025;-89
2023/01/04 09:21:46;;;;;;;2.22;1.10;;;;;;;12.76;86.41;101410.63;5023866;28;20124;-89
2023/01/04 09:24:12;;;;;;;8.02;1.20;;;;;;;12.72;86.38;101415.16;5025987;28;20515;-89
2023/01/04 09:26:38;;;;;;;3.30;0.90;;;;;;;12.69;86.10;101395.88;5005908;28;20048;-89
2023/01/04 09:29:04;;;;;;;3.15;1.15;;;;;;;12.64;86.47;101409.31;5022403;28;20037;-88
2023/01/04 09:31:29;;;;;;;1.80;1.10;;;;;;;12.60;87.67;101397.09;5006133;28;20026;-89
2023/01/04 09:33:55;;;;;;;2.85;1.10;;;;;;;12.54;88.08;101420.34;5011914;28;20030;-89
2023/01/04 09:36:23;;;;;;;3.25;1.20;;;;;;;12.52;88.35;101408.00;5024127;28;20022;-88
2023/01/04 09:38:48;;;;;;;3.40;1.30;;;;;;;12.38;88.21;101388.25;5031102;28;20046;-88
2023/01/04 09:41:17;;;;;;;1.83;1.10;;;;;;;12.42;88.33;101413.75;5012170;28;20409;-89
2023/01/04 09:43:46;;;;;;;2.53;1.30;;;;;;;12.42;88.72;101414.59;5025468;28;20477;-88
2023/01/04 09:46:34;;;;;;;2.85;1.38;;;;;;;12.42;89.18;101413.75;5030971;28;20037;-88
2023/01/04 09:49:18;;;;;;;3.40;1.30;;;;;;;12.36;90.04;101409.53;5009493;28;20496;-87
2023/01/04 09:52:12;;;;;;;2.80;1.50;;;;;;;12.32;90.02;101420.31;5037648;28;20087;-89
2023/01/04 09:54:49;;;;;;;2.03;1.40;;;;;;;12.27;90.82;101404.59;5004034;28;20524;-89
2023/01/04 09:57:23;;;;;;;4.40;1.65;;;;;;;12.36;90.79;101413.97;5007441;28;20029;-88
2023/01/04 09:59:54;;;;;;;2.05;1.35;;;;;;;12.42;90.42;101398.69;5030288;28;20090;-89
2023/01/04 10:02:44;;;;;;;8.40;2.67;;;;;;;12.34;90.37;101405.22;5026678;28;20033;-89
2023/01/04 10:05:25;;;;;;;4.43;1.55;;;;;;;12.44;90.36;101401.28;5030031;28;20112;-89
2023/01/04 10:07:50;;;;;;;6.97;3.13;;;;;;;12.43;90.10;101410.16;5031068;28;20033;-88
2023/01/04 10:10:20;;;;;;;4.78;1.95;;;;;;;12.41;89.99;101401.41;5015397;28;20030;-89
2023/01/04 10:13:10;;;;;;;4.28;1.80;;;;;;;12.53;89.64;101398.25;5035110;28;20037;-89
2023/01/04 10:15:42;;;;;;;4.32;1.75;;;;;;;12.42;90.76;101408.44;5029838;28;20423;-89
2023/01/04 10:18:26;;;;;;;4.45;2.13;;;;;;;12.23;91.94;101395.03;5028046;28;20423;-88
2023/01/04 10:21:17;;;;;;;5.43;2.30;;;;;;;12.14;94.61;101405.97;5013022;28;20057;-89
2023/01/04 10:23:50;;;;;;;4.57;2.37;;;;;;;12.17;94.81;101411.13;5028189;28;20148;-89
2023/01/04 10:26:23;;;;;;;6.75;2.47;;;;;;;12.14;94.09;101393.59;5033306;28;20071;-88
2023/01/04 10:29:16;;;;;;;5.35;3.13;;;;;;;12.16;94.35;101418.22;5012271;28;20057;-89
2023/01/04 10:31:47;;;;;;;7.72;2.40;;;;;;;12.19;94.41;101391.63;5030343;28;20021;-89
2023/01/04 10:34:24;;;;;;;3.63;2.15;;;;;;;12.31;94.01;101410.63;5035400;28;20025;-89
2023/01/04 10:36:59;;;;;;;2.15;1.95;;;;;;;12.23;93.71;101409.13;5022614;28;20388;-89
2023/01/04 10:39:30;;;;;;;4.13;2.70;;;;;;;12.21;93.15;101399.50;5010191;28;20017;-89
2023/01/04 10:41:58;;;;;;;5.10;2.38;;;;;;;12.22;94.78;101394.16;5025203;28;20130;-89
2023/01/04 10:44:27;;;;;;;6.07;2.35;;;;;;;12.21;94.87;101392.41;5024509;28;20029;-89
2023/01/04 10:47:12;;;;;;;3.53;1.90;;;;;;;12.15;94.62;101374.09;5025615;28;20033;-88
2023/01/04 10:49:43;;;;;;;3.63;2.22;;;;;;;12.30;94.34;101382.38;5013355;28;20194;-89
2023/01/04 10:52:22;;;;;;;6.20;2.40;;;;;;;12.19;94.51;101365.09;5029339;28;20116;-90
2023/01/04 10:54:56;;;;;;;2.72;1.83;;;;;;;12.28;93.76;101378.94;5025497;28;20025;-89
2023/01/04 10:57:35;;;;;;;4.15;1.77;;;;;;;12.30;93.17;101372.63;5010305;28;20669;-89
2023/01/04 11:00:14;;;;;;;3.42;2.90;;;;;;;12.28;94.14;101374.50;5028364;28;20057;-89
2023/01/04 11:02:50;;;;;;;5.47;2.65;;;;;;;12.30;94.24;101371.78;5031527;28;20033;-89
2023/01/04 11:05:27;;;;;;;8.18;2.40;;;;;;;12.31;93.60;101386.75;5031920;28;20421;-89
2023/01/04 11:08:16;;;;;;;5.88;2.08;;;;;;;12.33;93.31;101384.94;5027182;28;20029;-89
2023/01/04 11:10:49;;;;;;;2.63;1.52;;;;;;;12.31;93.43;101379.69;5030598;28;20112;-88
2023/01/04 11:13:15;;;;;;;5.03;2.00;;;;;;;12.29;94.00;101368.25;5008171;28;20022;-89
2023/01/04 11:15:41;;;;;;;2.15;1.80;;;;;;;12.30;93.69;101382.38;5009864;28;20027;-90
2023/01/04 11:18:10;;;;;;;4.20;1.52;;;;;;;12.40;93.59;101386.41;5009808;28;20029;-89
2023/01/04 11:20:36;;;;;;;3.50;1.58;;;;;;;12.37;93.60;101379.44;5026446;28;20083;-89
2023/01/04 11:23:09;;;;;;;2.47;1.58;;;;;;;12.43;93.15;101383.63;5030484;28;20033;-89
2023/01/04 11:25:41;;;;;;;3.08;1.40;;;;;;;12.45;93.39;101395.03;5009938;28;20021;-89
2023/01/04 11:28:07;;;;;;;4.00;1.55;;;;;;;12.37;93.80;101381.25;5011502;28;20029;-89
2023/01/04 11:30:45;;;;;;;1.88;1.10;;;;;;;12.28;94.40;101379.81;5037699;28;20034;-89
2023/01/04 11:33:16;;;;;;;4.85;1.35;;;;;;;12.35;94.71;101377.75;5031161;28;20391;-89
2023/01/04 11:35:45;;;;;;;1.42;1.13;;;;;;;12.34;94.45;101376.03;5028431;28;20025;-89
2023/01/04 11:38:15;;;;;;;1.30;1.20;;;;;;;12.44;94.14;101385.34;5034328;28;20484;-89
2023/01/04 11:40:41;;;;;;;1.75;1.27;;;;;;;12.39;93.75;101369.63;5028862;28;20037;-89
2023/01/04 11:43:15;;;;;;;1.20;1.10;;;;;;;12.30;94.67;101377.09;5027315;28;20439;-89
2023/01/04 11:45:51;;;;;;;0.85;0.85;;;;;;;12.45;93.54;101392.38;5008679;28;20022;-90
2023/01/04 11:48:17;;;;;;;3.17;1.25;;;;;;;12.43;93.26;101375.69;5014923;28;20040;-89
2023/01/04 11:50:47;;;;;;;2.38;0.90;;;;;;;12.50;93.44;101401.06;5009523;28;20029;-89
2023/01/04 11:53:22;;;;;;;3.35;1.05;;;;;;;12.44;93.11;101374.75;5012556;28;20033;-89
2023/01/04 11:55:47;;;;;;;1.27;0.80;;;;;;;12.46;92.64;101380.88;5010326;28;20033;-88
2023/01/04 11:58:15;;;;;;;1.70;0.90;;;;;;;12.47;92.72;101388.75;5008280;28;20083;-90
2023/01/04 12:00:55;;;;;;;0.80;0.80;;;;;;;12.39;92.97;101376.72;5010108;28;20037;-89
2023/01/04 12:03:26;;;;;;;3.28;0.90;;;;;;;12.56;93.06;101384.88;5024802;28;20120;-88
2023/01/04 12:05:51;;;;;;;2.35;0.90;;;;;;;12.54;92.68;101386.72;5004084;28;20025;-89
2023/01/04 12:08:36;;;;;;;0.80;0.80;;;;;;;12.58;92.98;101374.22;5028839;28;20028;-89
2023/01/04 12:11:04;;;;;;;0.70;0.70;;;;;;;12.51;92.48;101392.16;5008268;28;20544;-89
2023/01/04 12:13:31;;;;;;;0.93;0.80;;;;;;;12.55;93.11;101388.47;5006990;28;20035;-89
2023/01/04 12:16:21;;;;;;;4.32;0.90;;;;;;;12.56;92.75;101378.72;5022539;28;20044;-89
2023/01/04 12:18:46;;;;;;;0.60;0.60;;;;;;;12.56;92.51;101378.72;5024017;28;20128;-89
2023/01/04 12:21:18;;;;;;;1.15;0.60;;;;;;;12.65;92.53;101383.66;5030906;28;20140;-89